AFR106 LEPA-LFPO
Flight info
| Callsign | AFR106 |
|---|---|
| Flight time | N/A |
| Altitude | 40000 |
| Route | GALAT N861 OLOXO DCT OKABI DCT TOU DCT DIBAG DCT TUDRA DCT BEVOL UT158 AMB |
| Aircraft | A359/H-SDE2E3GHIJ3J4J5LM1ORWXY/LB1D1 |
Departure
| Time | 2026-05-07 14:34 |
|---|---|
| Airport | Palma de Mallorca Airport (LEPA) |
Arrival
| Time | N/A |
|---|---|
| Airport | Paris-Orly Airport (LFPO) |
| Time | Latitude | Longitude | Altitude | Speed | Heading |
|---|---|---|---|---|---|
| 2026-05-07 14:12 | 39.54904 | 2.73821 | 38 ft | 0 kts | 239° |
| 2026-05-07 14:25 | 39.54905 | 2.73823 | 40 ft | 1 kts | 238° |
| 2026-05-07 14:25 | 39.54914 | 2.73841 | 39 ft | 3 kts | 232° |
| 2026-05-07 14:25 | 39.54927 | 2.73861 | 39 ft | 3 kts | 223° |
| 2026-05-07 14:26 | 39.54943 | 2.73878 | 37 ft | 3 kts | 211° |
| 2026-05-07 14:26 | 39.54961 | 2.73889 | 35 ft | 3 kts | 193° |
| 2026-05-07 14:26 | 39.54980 | 2.73892 | 35 ft | 3 kts | 167° |
| 2026-05-07 14:26 | 39.54992 | 2.73887 | 36 ft | 0 kts | 149° |
| 2026-05-07 14:28 | 39.54991 | 2.73888 | 36 ft | 1 kts | 149° |
| 2026-05-07 14:28 | 39.54951 | 2.73921 | 38 ft | 11 kts | 135° |
| 2026-05-07 14:28 | 39.54941 | 2.74016 | 39 ft | 11 kts | 107° |
| 2026-05-07 14:29 | 39.54875 | 2.74088 | 39 ft | 17 kts | 146° |
| 2026-05-07 14:29 | 39.54792 | 2.74109 | 39 ft | 4 kts | 210° |
| 2026-05-07 14:29 | 39.54752 | 2.74046 | 39 ft | 15 kts | 237° |
| 2026-05-07 14:29 | 39.54675 | 2.73887 | 40 ft | 25 kts | 239° |
| 2026-05-07 14:30 | 39.54590 | 2.73703 | 41 ft | 20 kts | 240° |
| 2026-05-07 14:30 | 39.54503 | 2.73520 | 42 ft | 28 kts | 239° |
| 2026-05-07 14:30 | 39.54388 | 2.73274 | 44 ft | 24 kts | 238° |
| 2026-05-07 14:30 | 39.54322 | 2.73177 | 45 ft | 4 kts | 191° |
| 2026-05-07 14:31 | 39.54301 | 2.73197 | 45 ft | 7 kts | 136° |
| 2026-05-07 14:31 | 39.54281 | 2.73288 | 44 ft | 14 kts | 96° |
| 2026-05-07 14:31 | 39.54274 | 2.73388 | 44 ft | 0 kts | 92° |
| 2026-05-07 14:33 | 39.54274 | 2.73455 | 43 ft | 18 kts | 84° |
| 2026-05-07 14:33 | 39.54324 | 2.73595 | 40 ft | 6 kts | 58° |
| 2026-05-07 14:33 | 39.54325 | 2.73597 | 40 ft | 0 kts | 58° |
| 2026-05-07 14:33 | 39.54350 | 2.73651 | 40 ft | 34 kts | 58° |
| 2026-05-07 14:34 | 39.54669 | 2.74324 | 41 ft | 140 kts | 58° |
| 2026-05-07 14:34 | 39.55227 | 2.75470 | 1053 ft | 157 kts | 57° |
| 2026-05-07 14:34 | 39.55878 | 2.76717 | 2239 ft | 179 kts | 57° |
| 2026-05-07 14:34 | 39.56558 | 2.78139 | 3220 ft | 191 kts | 59° |
| 2026-05-07 14:35 | 39.57265 | 2.79663 | 3921 ft | 203 kts | 60° |
| 2026-05-07 14:35 | 39.58220 | 2.81047 | 4767 ft | 213 kts | 33° |
| 2026-05-07 14:35 | 39.59668 | 2.81529 | 5613 ft | 224 kts | 358° |
| 2026-05-07 14:35 | 39.61265 | 2.81146 | 6227 ft | 247 kts | 343° |
| 2026-05-07 14:36 | 39.62830 | 2.79971 | 6657 ft | 275 kts | 312° |
| 2026-05-07 14:36 | 39.63938 | 2.77909 | 7473 ft | 283 kts | 298° |
| 2026-05-07 14:36 | 39.64899 | 2.75668 | 8482 ft | 286 kts | 297° |
| 2026-05-07 14:36 | 39.65850 | 2.73383 | 9544 ft | 290 kts | 296° |
| 2026-05-07 14:37 | 39.66814 | 2.71054 | 10451 ft | 299 kts | 296° |
| 2026-05-07 14:37 | 39.68934 | 2.65900 | 11324 ft | 348 kts | 295° |
| 2026-05-07 14:37 | 39.70102 | 2.63072 | 12006 ft | 360 kts | 296° |
| 2026-05-07 14:38 | 39.71285 | 2.60208 | 12806 ft | 369 kts | 295° |
| 2026-05-07 14:38 | 39.72509 | 2.57241 | 13700 ft | 375 kts | 295° |
| 2026-05-07 14:38 | 39.73747 | 2.54245 | 14530 ft | 379 kts | 295° |
| 2026-05-07 14:38 | 39.74997 | 2.51213 | 15364 ft | 382 kts | 295° |
| 2026-05-07 14:39 | 39.76254 | 2.48159 | 16183 ft | 386 kts | 295° |
| 2026-05-07 14:39 | 39.77526 | 2.45064 | 16968 ft | 391 kts | 295° |
| 2026-05-07 14:39 | 39.78814 | 2.41931 | 17773 ft | 395 kts | 294° |
| 2026-05-07 14:39 | 39.80115 | 2.38757 | 18522 ft | 399 kts | 293° |
| 2026-05-07 14:40 | 39.81426 | 2.35557 | 19250 ft | 403 kts | 293° |
| 2026-05-07 14:40 | 39.82923 | 2.32435 | 19959 ft | 412 kts | 304° |
| 2026-05-07 14:40 | 39.84923 | 2.29737 | 20785 ft | 417 kts | 313° |
| 2026-05-07 14:40 | 39.87083 | 2.27199 | 21643 ft | 419 kts | 313° |
| 2026-05-07 14:41 | 39.89239 | 2.24698 | 22389 ft | 423 kts | 312° |
| 2026-05-07 14:41 | 39.91445 | 2.22130 | 23095 ft | 428 kts | 312° |
| 2026-05-07 14:41 | 39.93672 | 2.19527 | 23755 ft | 432 kts | 311° |
| 2026-05-07 14:41 | 39.95921 | 2.16894 | 24330 ft | 437 kts | 311° |
| 2026-05-07 14:42 | 39.98194 | 2.14226 | 24906 ft | 442 kts | 311° |
| 2026-05-07 14:42 | 40.00490 | 2.11527 | 25471 ft | 446 kts | 311° |
| 2026-05-07 14:42 | 40.02799 | 2.08812 | 26172 ft | 447 kts | 310° |
| 2026-05-07 14:42 | 40.05114 | 2.06086 | 26799 ft | 450 kts | 310° |
| 2026-05-07 14:43 | 40.07451 | 2.03327 | 27310 ft | 456 kts | 310° |
| 2026-05-07 14:43 | 40.09816 | 2.00533 | 27833 ft | 460 kts | 309° |
| 2026-05-07 14:43 | 40.12245 | 1.97760 | 28348 ft | 469 kts | 313° |
| 2026-05-07 14:43 | 40.14983 | 1.95340 | 28850 ft | 483 kts | 323° |
| 2026-05-07 14:44 | 40.18103 | 1.93557 | 29336 ft | 497 kts | 335° |
| 2026-05-07 14:44 | 40.21475 | 1.92383 | 29846 ft | 505 kts | 340° |
| 2026-05-07 14:44 | 40.24936 | 1.91434 | 30267 ft | 512 kts | 342° |
| 2026-05-07 14:44 | 40.28467 | 1.90595 | 30597 ft | 519 kts | 343° |
| 2026-05-07 14:45 | 40.32045 | 1.89804 | 30997 ft | 523 kts | 343° |
| 2026-05-07 14:45 | 40.35598 | 1.89031 | 31390 ft | 526 kts | 343° |
| 2026-05-07 14:45 | 40.39219 | 1.88232 | 31767 ft | 529 kts | 343° |
| 2026-05-07 14:45 | 40.42860 | 1.87411 | 32118 ft | 532 kts | 343° |
| 2026-05-07 14:46 | 40.46520 | 1.86570 | 32467 ft | 535 kts | 342° |
| 2026-05-07 14:46 | 40.50192 | 1.85717 | 32851 ft | 537 kts | 342° |
| 2026-05-07 14:46 | 40.53882 | 1.84852 | 33156 ft | 540 kts | 342° |
| 2026-05-07 14:46 | 40.57594 | 1.83978 | 33446 ft | 543 kts | 342° |
| 2026-05-07 14:47 | 40.61317 | 1.83102 | 33855 ft | 544 kts | 342° |
| 2026-05-07 14:47 | 40.65036 | 1.82230 | 34335 ft | 541 kts | 342° |
| 2026-05-07 14:47 | 40.68719 | 1.81368 | 34877 ft | 536 kts | 342° |
| 2026-05-07 14:47 | 40.72374 | 1.80512 | 35401 ft | 532 kts | 342° |
| 2026-05-07 14:48 | 40.76005 | 1.79658 | 35887 ft | 528 kts | 343° |
| 2026-05-07 14:48 | 40.79614 | 1.78809 | 36322 ft | 525 kts | 343° |
| 2026-05-07 14:48 | 40.83153 | 1.77973 | 36726 ft | 523 kts | 343° |
| 2026-05-07 14:48 | 40.86731 | 1.77128 | 37125 ft | 521 kts | 343° |
| 2026-05-07 14:49 | 40.90295 | 1.76286 | 37558 ft | 519 kts | 343° |
| 2026-05-07 14:49 | 40.93846 | 1.75446 | 37920 ft | 518 kts | 343° |
| 2026-05-07 14:49 | 40.97387 | 1.74609 | 38302 ft | 516 kts | 343° |
| 2026-05-07 14:49 | 41.00914 | 1.73774 | 38685 ft | 513 kts | 343° |
| 2026-05-07 14:50 | 41.04425 | 1.72942 | 38951 ft | 512 kts | 343° |
| 2026-05-07 14:50 | 41.07942 | 1.72153 | 39138 ft | 514 kts | 346° |
| 2026-05-07 14:50 | 41.11497 | 1.71547 | 39332 ft | 515 kts | 348° |
| 2026-05-07 14:50 | 41.15065 | 1.71044 | 39544 ft | 516 kts | 348° |
| 2026-05-07 14:51 | 41.18636 | 1.70570 | 39752 ft | 516 kts | 348° |
| 2026-05-07 14:51 | 41.22160 | 1.70095 | 39922 ft | 516 kts | 348° |
| 2026-05-07 14:51 | 41.29304 | 1.69071 | 39974 ft | 516 kts | 348° |
| 2026-05-07 14:52 | 41.36433 | 1.67974 | 39973 ft | 516 kts | 347° |
| 2026-05-07 14:52 | 41.43562 | 1.66859 | 39968 ft | 516 kts | 347° |
| 2026-05-07 14:53 | 41.50697 | 1.65744 | 39972 ft | 516 kts | 347° |
| 2026-05-07 14:53 | 41.57832 | 1.64625 | 39971 ft | 516 kts | 347° |
| 2026-05-07 14:54 | 41.64957 | 1.63505 | 39965 ft | 515 kts | 347° |
| 2026-05-07 14:54 | 41.72027 | 1.62390 | 39960 ft | 515 kts | 347° |
| 2026-05-07 14:55 | 41.79148 | 1.61267 | 39955 ft | 515 kts | 347° |
| 2026-05-07 14:55 | 41.86251 | 1.60150 | 39947 ft | 514 kts | 347° |
| 2026-05-07 14:56 | 41.93342 | 1.59028 | 39947 ft | 513 kts | 347° |
| 2026-05-07 14:56 | 42.00440 | 1.57902 | 39948 ft | 514 kts | 347° |
| 2026-05-07 14:57 | 42.07534 | 1.56774 | 39943 ft | 513 kts | 347° |
| 2026-05-07 14:57 | 42.14630 | 1.55646 | 39946 ft | 513 kts | 348° |
| 2026-05-07 14:58 | 42.21676 | 1.54522 | 39943 ft | 513 kts | 347° |
| 2026-05-07 14:58 | 42.28764 | 1.53389 | 39939 ft | 513 kts | 347° |
| 2026-05-07 14:59 | 42.35856 | 1.52252 | 39936 ft | 513 kts | 348° |
| 2026-05-07 14:59 | 42.42946 | 1.51114 | 39942 ft | 513 kts | 348° |
| 2026-05-07 15:00 | 42.50041 | 1.49974 | 39944 ft | 513 kts | 348° |
| 2026-05-07 15:00 | 42.57136 | 1.48831 | 39951 ft | 514 kts | 348° |
| 2026-05-07 15:01 | 42.64184 | 1.47691 | 39959 ft | 513 kts | 348° |
| 2026-05-07 15:01 | 42.71271 | 1.46552 | 39971 ft | 513 kts | 348° |
| 2026-05-07 15:02 | 42.78356 | 1.45410 | 39972 ft | 512 kts | 348° |
| 2026-05-07 15:02 | 42.85443 | 1.44258 | 39976 ft | 513 kts | 348° |
| 2026-05-07 15:03 | 42.92532 | 1.43120 | 39966 ft | 513 kts | 348° |
| 2026-05-07 15:03 | 42.99622 | 1.41972 | 39968 ft | 513 kts | 348° |
| 2026-05-07 15:04 | 43.06701 | 1.40819 | 39973 ft | 511 kts | 348° |
| 2026-05-07 15:04 | 43.13763 | 1.39668 | 39973 ft | 511 kts | 348° |
| 2026-05-07 15:05 | 43.20768 | 1.38523 | 39968 ft | 510 kts | 348° |
| 2026-05-07 15:05 | 43.27612 | 1.37401 | 39968 ft | 510 kts | 348° |